Time;durP1;ratioP1;P1;durP2;ratioP2;P2;SDS_P1;SDS_P2;PMS_P1;PMS_P2;Temp;Humidity;BMP_temperature;BMP_pressure;BME280_temperature;BME280_humidity;BME280_pressure;Samples;Min_cycle;Max_cycle;Signal;HPM_P1;HPM_P2
2020/12/10 00:02:27;;;;;;;17.97;9.80;;;;;;;;;;5031852;28;20232;-78
2020/12/10 00:04:55;;;;;;;17.13;9.33;;;;;;;;;;5027541;28;20588;-78
2020/12/10 00:07:23;;;;;;;16.80;9.83;;;;;;;;;;5026556;28;20232;-78
2020/12/10 00:09:52;;;;;;;15.83;8.73;;;;;;;;;;5030653;28;20736;-77
2020/12/10 00:12:20;;;;;;;19.23;9.70;;;;;;;;;;5024617;28;20239;-78
2020/12/10 00:14:53;;;;;;;17.93;10.27;;;;;;;;;;5022501;28;20232;-77
2020/12/10 00:17:29;;;;;;;15.70;9.50;;;;;;;;;;5024923;28;20232;-78
2020/12/10 00:19:57;;;;;;;16.77;9.47;;;;;;;;;;5061642;28;20231;-78
2020/12/10 00:22:25;;;;;;;16.43;9.60;;;;;;;;;;5027467;28;20240;-78
2020/12/10 00:25:11;;;;;;;18.03;9.77;;;;;;;;;;5025024;28;20220;-80
2020/12/10 00:27:39;;;;;;;17.37;9.33;;;;;;;;;;5024923;28;20236;-78
2020/12/10 00:30:07;;;;;;;17.07;9.03;;;;;;;;;;5010204;28;20705;-78
2020/12/10 00:32:36;;;;;;;17.07;9.40;;;;;;;;;;5008271;28;20590;-79
2020/12/10 00:35:05;;;;;;;19.00;10.50;;;;;;;;;;5043087;28;20225;-79
2020/12/10 00:37:33;;;;;;;17.87;9.67;;;;;;;;;;4983746;28;20247;-79
2020/12/10 00:40:01;;;;;;;16.50;8.90;;;;;;;;;;5025174;28;20233;-79
2020/12/10 00:42:28;;;;;;;18.43;9.37;;;;;;;;;;5006399;28;20247;-79
2020/12/10 00:44:56;;;;;;;16.80;8.93;;;;;;;;;;5001513;28;20232;-79
2020/12/10 00:47:24;;;;;;;16.40;10.03;;;;;;;;;;5014246;28;20246;-78
2020/12/10 00:49:57;;;;;;;17.67;10.03;;;;;;;;;;5013764;28;20617;-78
2020/12/10 00:52:25;;;;;;;16.73;9.30;;;;;;;;;;5023079;28;20232;-78
2020/12/10 00:54:57;;;;;;;17.07;9.90;;;;;;;;;;5020456;28;20236;-78
2020/12/10 00:57:28;;;;;;;16.97;9.80;;;;;;;;;;5044438;28;20220;-78
2020/12/10 00:59:56;;;;;;;18.50;9.90;;;;;;;;;;5027565;28;20224;-79
2020/12/10 01:02:23;;;;;;;20.47;11.67;;;;;;;;;;5011193;28;20306;-78
2020/12/10 01:04:51;;;;;;;18.27;9.63;;;;;;;;;;5030292;28;20227;-79
2020/12/10 01:07:19;;;;;;;17.43;10.37;;;;;;;;;;5022769;28;20235;-78
2020/12/10 01:09:47;;;;;;;18.73;10.13;;;;;;;;;;5030395;28;20238;-79
2020/12/10 01:12:17;;;;;;;17.17;10.40;;;;;;;;;;5007488;28;20458;-78
2020/12/10 01:14:45;;;;;;;20.40;10.60;;;;;;;;;;5035059;28;20236;-79
2020/12/10 01:17:12;;;;;;;17.53;9.57;;;;;;;;;;5011832;28;20229;-79
2020/12/10 01:19:40;;;;;;;18.83;10.20;;;;;;;;;;5007498;28;20232;-78
2020/12/10 01:22:08;;;;;;;15.23;9.60;;;;;;;;;;4999585;28;20224;-79
2020/12/10 01:24:36;;;;;;;17.17;10.27;;;;;;;;;;5002594;28;20239;-79
2020/12/10 01:27:04;;;;;;;17.67;10.40;;;;;;;;;;5005431;28;20292;-78
2020/12/10 01:29:31;;;;;;;17.93;10.40;;;;;;;;;;5003047;28;20232;-78
2020/12/10 01:31:59;;;;;;;20.63;11.67;;;;;;;;;;4996606;28;20235;-78
2020/12/10 01:34:27;;;;;;;17.33;10.33;;;;;;;;;;5004919;28;20312;-79
2020/12/10 01:36:54;;;;;;;18.00;11.07;;;;;;;;;;4998275;28;20256;-78
2020/12/10 01:39:22;;;;;;;20.70;11.87;;;;;;;;;;4996785;28;20255;-79
2020/12/10 01:41:50;;;;;;;18.60;10.10;;;;;;;;;;5008037;28;20240;-79
2020/12/10 01:44:18;;;;;;;20.50;10.63;;;;;;;;;;5004301;28;20241;-78
2020/12/10 01:46:46;;;;;;;19.23;10.83;;;;;;;;;;5005067;28;20247;-78
2020/12/10 01:49:14;;;;;;;17.30;11.10;;;;;;;;;;5024938;28;20229;-78
2020/12/10 01:51:41;;;;;;;18.73;10.20;;;;;;;;;;5045174;28;20233;-78
2020/12/10 01:54:09;;;;;;;18.73;10.07;;;;;;;;;;5026169;28;20243;-78
2020/12/10 01:56:37;;;;;;;19.00;10.80;;;;;;;;;;5035265;28;20229;-79
2020/12/10 01:59:05;;;;;;;22.03;11.00;;;;;;;;;;5010963;28;20221;-79
2020/12/10 02:01:34;;;;;;;18.50;10.57;;;;;;;;;;5024793;28;20263;-79
2020/12/10 02:04:03;;;;;;;19.93;10.70;;;;;;;;;;5002116;28;20225;-79
2020/12/10 02:06:30;;;;;;;19.37;10.83;;;;;;;;;;5016762;28;20224;-78
2020/12/10 02:08:58;;;;;;;19.50;10.23;;;;;;;;;;4997908;28;20232;-78
2020/12/10 02:11:26;;;;;;;20.40;11.77;;;;;;;;;;5009051;28;20239;-79
2020/12/10 02:13:54;;;;;;;19.27;10.27;;;;;;;;;;4999429;28;20237;-79
2020/12/10 02:16:22;;;;;;;18.80;10.47;;;;;;;;;;5010705;28;20235;-78
2020/12/10 02:18:54;;;;;;;21.20;10.90;;;;;;;;;;5029474;28;20216;-78
2020/12/10 02:21:21;;;;;;;19.17;10.07;;;;;;;;;;5023198;28;20235;-78
2020/12/10 02:23:53;;;;;;;17.07;9.90;;;;;;;;;;5033519;28;20225;-79
2020/12/10 02:26:22;;;;;;;18.90;9.90;;;;;;;;;;5003819;28;20229;-79
2020/12/10 02:28:50;;;;;;;18.93;10.23;;;;;;;;;;5009764;28;20725;-78
2020/12/10 02:31:22;;;;;;;18.80;10.93;;;;;;;;;;5014720;28;20241;-79
2020/12/10 02:33:50;;;;;;;16.20;9.07;;;;;;;;;;5001282;28;20217;-78
2020/12/10 02:36:18;;;;;;;17.87;9.83;;;;;;;;;;5001792;28;20233;-79
2020/12/10 02:38:45;;;;;;;19.10;10.53;;;;;;;;;;5022502;28;20232;-79
2020/12/10 02:41:15;;;;;;;19.60;10.10;;;;;;;;;;5022947;28;20244;-78
2020/12/10 02:43:43;;;;;;;20.37;10.73;;;;;;;;;;5022066;28;20223;-79
2020/12/10 02:46:10;;;;;;;19.60;10.50;;;;;;;;;;5025816;28;20232;-79
2020/12/10 02:48:38;;;;;;;19.23;10.60;;;;;;;;;;5030212;28;20233;-81
2020/12/10 02:51:06;;;;;;;20.20;9.43;;;;;;;;;;5009396;28;20598;-79
2020/12/10 02:53:34;;;;;;;18.63;10.57;;;;;;;;;;5010829;28;20225;-79
2020/12/10 02:56:06;;;;;;;16.60;9.67;;;;;;;;;;5003347;28;20228;-79
2020/12/10 02:58:35;;;;;;;17.07;9.30;;;;;;;;;;4991710;28;20595;-79
2020/12/10 03:01:03;;;;;;;18.63;10.33;;;;;;;;;;5016594;28;20236;-79
2020/12/10 03:03:30;;;;;;;18.03;10.13;;;;;;;;;;4984740;28;20232;-79
2020/12/10 03:05:59;;;;;;;20.30;10.07;;;;;;;;;;5006425;28;20231;-78
2020/12/10 03:08:26;;;;;;;20.30;10.47;;;;;;;;;;5008882;28;20714;-79
2020/12/10 03:10:54;;;;;;;19.80;10.63;;;;;;;;;;5001847;28;20230;-79
2020/12/10 03:13:22;;;;;;;19.07;10.37;;;;;;;;;;5007034;28;20226;-78
2020/12/10 03:15:50;;;;;;;18.20;10.27;;;;;;;;;;5024905;28;20239;-78
2020/12/10 03:18:18;;;;;;;17.37;10.23;;;;;;;;;;5002306;28;20236;-79
2020/12/10 03:20:47;;;;;;;18.80;10.93;;;;;;;;;;4992385;28;20733;-78
2020/12/10 03:23:14;;;;;;;15.97;9.90;;;;;;;;;;4991963;28;20750;-78
2020/12/10 03:25:42;;;;;;;18.97;10.17;;;;;;;;;;5007232;28;20228;-79
2020/12/10 03:28:10;;;;;;;17.97;9.67;;;;;;;;;;5002463;28;20737;-79
2020/12/10 03:30:38;;;;;;;17.43;9.83;;;;;;;;;;5006063;28;20229;-79
2020/12/10 03:33:06;;;;;;;16.73;9.57;;;;;;;;;;5002765;28;20241;-78
2020/12/10 03:35:34;;;;;;;14.87;9.07;;;;;;;;;;5035240;28;20733;-78
2020/12/10 03:38:01;;;;;;;18.20;10.77;;;;;;;;;;5001308;28;20239;-78
2020/12/10 03:40:29;;;;;;;16.43;9.40;;;;;;;;;;5000759;28;20247;-79
2020/12/10 03:42:57;;;;;;;17.40;9.53;;;;;;;;;;5006593;28;20304;-78
2020/12/10 03:45:24;;;;;;;18.00;9.70;;;;;;;;;;4994631;28;20233;-79
2020/12/10 03:47:52;;;;;;;16.53;9.90;;;;;;;;;;5004111;28;20239;-79
2020/12/10 03:50:20;;;;;;;15.67;8.83;;;;;;;;;;5010432;28;20228;-79
2020/12/10 03:52:48;;;;;;;14.37;8.67;;;;;;;;;;5026423;28;20595;-79
2020/12/10 03:55:16;;;;;;;15.27;8.77;;;;;;;;;;5013698;28;20232;-79
2020/12/10 03:57:43;;;;;;;14.33;9.17;;;;;;;;;;5000343;28;20225;-80
2020/12/10 04:00:11;;;;;;;15.53;8.67;;;;;;;;;;5032062;28;20215;-81
2020/12/10 04:02:38;;;;;;;16.70;9.97;;;;;;;;;;5021046;28;20225;-79
2020/12/10 04:05:06;;;;;;;16.60;9.20;;;;;;;;;;5022688;28;20296;-79
2020/12/10 04:07:34;;;;;;;17.23;9.63;;;;;;;;;;5024911;28;20236;-79
2020/12/10 04:10:01;;;;;;;18.60;9.93;;;;;;;;;;5018254;28;20233;-79
2020/12/10 04:12:29;;;;;;;14.97;8.70;;;;;;;;;;5002702;28;20236;-79
2020/12/10 04:14:57;;;;;;;16.53;10.60;;;;;;;;;;5010760;28;20248;-78
2020/12/10 04:17:24;;;;;;;16.50;9.30;;;;;;;;;;5011827;28;20229;-78
2020/12/10 04:19:52;;;;;;;20.93;9.77;;;;;;;;;;5009050;28;20228;-78
2020/12/10 04:22:20;;;;;;;17.13;9.47;;;;;;;;;;4996985;28;20236;-79
2020/12/10 04:24:48;;;;;;;15.80;8.70;;;;;;;;;;5026741;28;20231;-79
2020/12/10 04:27:16;;;;;;;13.73;8.23;;;;;;;;;;5020189;28;20588;-79
2020/12/10 04:29:43;;;;;;;10.73;6.63;;;;;;;;;;5023709;28;20228;-79
2020/12/10 04:32:11;;;;;;;15.70;9.10;;;;;;;;;;5023902;28;20227;-79
2020/12/10 04:34:38;;;;;;;14.83;8.53;;;;;;;;;;5009251;28;20710;-79
2020/12/10 04:37:06;;;;;;;14.70;8.57;;;;;;;;;;5016053;28;20220;-78
2020/12/10 04:39:52;;;;;;;12.93;7.67;;;;;;;;;;5000390;28;20227;-78
2020/12/10 04:42:19;;;;;;;11.37;6.23;;;;;;;;;;5028082;28;20247;-78
2020/12/10 04:44:47;;;;;;;11.20;6.40;;;;;;;;;;5005776;28;20216;-79
2020/12/10 04:47:15;;;;;;;10.07;6.47;;;;;;;;;;5007652;28;20629;-78
2020/12/10 04:49:43;;;;;;;11.47;6.67;;;;;;;;;;5017309;28;20724;-79
2020/12/10 04:52:11;;;;;;;9.80;6.17;;;;;;;;;;5008296;28;20241;-78
2020/12/10 04:54:39;;;;;;;10.83;6.80;;;;;;;;;;5014605;28;20300;-78
2020/12/10 04:57:10;;;;;;;12.30;7.23;;;;;;;;;;4992088;28;20706;-78
2020/12/10 04:59:39;;;;;;;11.00;6.97;;;;;;;;;;5007487;28;20274;-80
2020/12/10 05:02:09;;;;;;;11.87;7.50;;;;;;;;;;5024803;28;22691;-79
2020/12/10 05:04:38;;;;;;;10.00;6.47;;;;;;;;;;5041670;28;20239;-79
2020/12/10 05:07:05;;;;;;;9.93;5.80;;;;;;;;;;5020122;28;20227;-78
2020/12/10 05:09:33;;;;;;;10.43;6.57;;;;;;;;;;5005651;28;20213;-79
2020/12/10 05:12:02;;;;;;;11.63;7.30;;;;;;;;;;5004876;28;20228;-79
2020/12/10 05:14:45;;;;;;;14.17;7.33;;;;;;;;;;5017800;28;20237;-79
2020/12/10 05:17:15;;;;;;;9.23;6.00;;;;;;;;;;5031454;28;20232;-79
2020/12/10 05:19:43;;;;;;;8.10;5.13;;;;;;;;;;5026322;28;20228;-78
2020/12/10 05:22:10;;;;;;;8.33;5.67;;;;;;;;;;5019102;28;20232;-79
2020/12/10 05:24:38;;;;;;;9.20;5.50;;;;;;;;;;5028394;28;20235;-79
2020/12/10 05:27:16;;;;;;;6.33;4.40;;;;;;;;;;5023814;28;20224;-77
2020/12/10 05:29:45;;;;;;;8.43;5.50;;;;;;;;;;5009812;28;20702;-79
2020/12/10 05:32:32;;;;;;;6.87;4.50;;;;;;;;;;5003649;28;20706;-79
2020/12/10 05:35:00;;;;;;;8.27;4.70;;;;;;;;;;5019630;28;20228;-79
2020/12/10 05:37:29;;;;;;;7.67;4.60;;;;;;;;;;5004682;28;20572;-79
2020/12/10 05:39:59;;;;;;;9.27;4.90;;;;;;;;;;5008241;28;20249;-78
2020/12/10 05:42:34;;;;;;;7.63;4.97;;;;;;;;;;5008283;28;20240;-79
2020/12/10 05:45:10;;;;;;;8.03;5.20;;;;;;;;;;5008109;28;20247;-78
2020/12/10 05:47:43;;;;;;;7.23;4.60;;;;;;;;;;5011099;28;20224;-79
2020/12/10 05:50:13;;;;;;;8.00;5.43;;;;;;;;;;4997624;28;20224;-79
2020/12/10 05:52:52;;;;;;;7.27;4.57;;;;;;;;;;5034871;28;20555;-79
2020/12/10 05:55:19;;;;;;;7.80;5.00;;;;;;;;;;5031550;28;20231;-79
2020/12/10 05:57:48;;;;;;;8.00;5.33;;;;;;;;;;5025288;28;20216;-79
2020/12/10 06:00:17;;;;;;;7.20;4.67;;;;;;;;;;5021322;28;20609;-79
2020/12/10 06:02:44;;;;;;;7.87;5.20;;;;;;;;;;5006795;28;20233;-78
2020/12/10 06:05:13;;;;;;;7.23;4.90;;;;;;;;;;5007321;28;20718;-79
2020/12/10 06:07:59;;;;;;;7.57;4.87;;;;;;;;;;5018175;28;20234;-79
2020/12/10 06:10:27;;;;;;;7.03;4.47;;;;;;;;;;5024977;28;20636;-78
2020/12/10 06:12:54;;;;;;;6.57;4.87;;;;;;;;;;5027148;28;20239;-78
2020/12/10 06:15:24;;;;;;;7.63;4.50;;;;;;;;;;5013855;28;20224;-78
2020/12/10 06:18:06;;;;;;;10.30;5.83;;;;;;;;;;5030866;28;20228;-79
2020/12/10 06:20:39;;;;;;;7.10;5.13;;;;;;;;;;5032233;28;20239;-78
2020/12/10 06:23:38;;;;;;;7.63;5.10;;;;;;;;;;4992546;28;20228;-78
2020/12/10 06:26:34;;;;;;;7.47;4.20;;;;;;;;;;5022136;28;20227;-79
2020/12/10 06:29:22;;;;;;;7.17;4.80;;;;;;;;;;5031203;28;20251;-78
2020/12/10 06:32:14;;;;;;;9.10;5.57;;;;;;;;;;5037218;28;20239;-78
2020/12/10 06:34:45;;;;;;;9.03;5.70;;;;;;;;;;5024940;28;20236;-78
2020/12/10 06:37:25;;;;;;;8.23;5.43;;;;;;;;;;5022497;28;20228;-77
2020/12/10 06:39:55;;;;;;;8.93;5.17;;;;;;;;;;5023513;28;20228;-78
2020/12/10 06:42:23;;;;;;;9.20;5.70;;;;;;;;;;5024973;28;20236;-78
2020/12/10 06:44:51;;;;;;;7.47;5.17;;;;;;;;;;5026201;28;20242;-78
2020/12/10 06:47:20;;;;;;;8.67;4.47;;;;;;;;;;5028793;28;20232;-78
2020/12/10 06:49:47;;;;;;;8.87;5.00;;;;;;;;;;5030056;28;20605;-78
2020/12/10 06:52:18;;;;;;;7.13;4.90;;;;;;;;;;5037001;28;20232;-79
2020/12/10 06:55:05;;;;;;;7.80;5.13;;;;;;;;;;5045518;28;20204;-79
2020/12/10 06:57:58;;;;;;;7.87;4.77;;;;;;;;;;5044591;28;20220;-79
2020/12/10 07:00:40;;;;;;;7.87;5.07;;;;;;;;;;5028701;28;20224;-78
2020/12/10 07:03:16;;;;;;;7.77;5.13;;;;;;;;;;5049678;28;20247;-78
2020/12/10 07:05:43;;;;;;;7.93;4.47;;;;;;;;;;5010438;28;20242;-79
2020/12/10 07:08:12;;;;;;;7.67;4.70;;;;;;;;;;5016979;28;20242;-78
2020/12/10 07:10:41;;;;;;;9.03;5.67;;;;;;;;;;5021759;28;20444;-78
2020/12/10 07:13:09;;;;;;;6.97;4.73;;;;;;;;;;5029665;28;20234;-78
2020/12/10 07:15:37;;;;;;;8.00;4.97;;;;;;;;;;5049552;28;20610;-79
2020/12/10 07:18:05;;;;;;;8.10;5.53;;;;;;;;;;5027579;28;20237;-79
2020/12/10 07:20:34;;;;;;;7.60;5.30;;;;;;;;;;5033828;28;20232;-78
2020/12/10 07:23:02;;;;;;;8.80;5.43;;;;;;;;;;5010235;28;20252;-79
2020/12/10 07:25:31;;;;;;;8.50;5.47;;;;;;;;;;5003694;28;20236;-78
2020/12/10 07:27:59;;;;;;;7.87;5.27;;;;;;;;;;5011068;28;20232;-77
2020/12/10 07:30:29;;;;;;;8.43;5.60;;;;;;;;;;5041220;28;20399;-78
2020/12/10 07:32:58;;;;;;;9.57;5.20;;;;;;;;;;5015075;28;20228;-78
2020/12/10 07:35:34;;;;;;;10.87;6.10;;;;;;;;;;5013043;28;20228;-78
2020/12/10 07:38:10;;;;;;;8.43;5.17;;;;;;;;;;5014210;28;20936;-78
2020/12/10 07:40:37;;;;;;;9.47;5.70;;;;;;;;;;5006486;28;20228;-79
2020/12/10 07:43:06;;;;;;;8.57;5.83;;;;;;;;;;5010154;28;20237;-79
2020/12/10 07:45:34;;;;;;;8.53;5.73;;;;;;;;;;5009680;28;20694;-79
2020/12/10 07:48:03;;;;;;;8.87;5.57;;;;;;;;;;5011617;28;20250;-79
2020/12/10 07:50:32;;;;;;;7.97;4.97;;;;;;;;;;5006632;28;20225;-79
2020/12/10 07:53:07;;;;;;;9.40;5.80;;;;;;;;;;5018736;28;20263;-78
2020/12/10 07:55:37;;;;;;;9.87;6.30;;;;;;;;;;5015817;28;20686;-80
2020/12/10 07:58:12;;;;;;;9.40;5.33;;;;;;;;;;5008892;28;20220;-79
2020/12/10 08:00:41;;;;;;;12.27;6.67;;;;;;;;;;5009548;28;20235;-80
2020/12/10 08:03:25;;;;;;;13.03;6.50;;;;;;;;;;5005225;28;20737;-79
2020/12/10 08:06:08;;;;;;;10.33;6.17;;;;;;;;;;4991817;28;20244;-79
2020/12/10 08:08:41;;;;;;;12.80;7.37;;;;;;;;;;5008710;28;20236;-79
2020/12/10 08:11:11;;;;;;;10.17;6.73;;;;;;;;;;5011028;28;20232;-80
2020/12/10 08:13:55;;;;;;;13.27;7.23;;;;;;;;;;5008556;28;21064;-79
2020/12/10 08:16:23;;;;;;;13.23;7.70;;;;;;;;;;5005965;28;20232;-80
2020/12/10 08:18:51;;;;;;;11.23;6.87;;;;;;;;;;5009148;28;20594;-80
2020/12/10 08:21:31;;;;;;;16.30;8.50;;;;;;;;;;5016215;28;20601;-79
2020/12/10 08:24:00;;;;;;;14.17;7.60;;;;;;;;;;5018663;28;20228;-79
2020/12/10 08:26:27;;;;;;;13.90;7.87;;;;;;;;;;5043527;28;20629;-79
2020/12/10 08:28:57;;;;;;;13.37;7.83;;;;;;;;;;5025563;28;20220;-78
2020/12/10 08:31:25;;;;;;;14.80;8.20;;;;;;;;;;5025159;28;20224;-80
2020/12/10 08:33:53;;;;;;;15.10;8.07;;;;;;;;;;5025320;28;20216;-79
2020/12/10 08:36:32;;;;;;;13.33;8.17;;;;;;;;;;5017696;28;20428;-80
2020/12/10 08:39:03;;;;;;;13.27;8.10;;;;;;;;;;5030377;28;20251;-79
2020/12/10 08:41:32;;;;;;;15.83;9.10;;;;;;;;;;5020533;28;20236;-80
2020/12/10 08:44:01;;;;;;;13.70;8.40;;;;;;;;;;5021076;28;20232;-80
2020/12/10 08:46:30;;;;;;;14.77;8.33;;;;;;;;;;5015966;28;21696;-79
2020/12/10 08:49:17;;;;;;;12.10;7.40;;;;;;;;;;5030956;28;20232;-78
2020/12/10 08:51:46;;;;;;;13.33;7.63;;;;;;;;;;5020445;28;20240;-81
2020/12/10 08:54:15;;;;;;;13.60;8.57;;;;;;;;;;5047476;28;20246;-78
2020/12/10 08:56:42;;;;;;;12.80;7.53;;;;;;;;;;5032798;28;20220;-78
2020/12/10 08:59:10;;;;;;;13.73;8.07;;;;;;;;;;5010305;28;20228;-78
2020/12/10 09:01:51;;;;;;;12.43;7.63;;;;;;;;;;4994950;28;20241;-78
2020/12/10 09:04:19;;;;;;;12.90;7.57;;;;;;;;;;5001786;28;20235;-78
2020/12/10 09:06:47;;;;;;;18.53;8.40;;;;;;;;;;5017018;28;20219;-79
2020/12/10 09:09:15;;;;;;;41.70;9.90;;;;;;;;;;4987534;28;20229;-79
2020/12/10 09:11:46;;;;;;;13.50;7.47;;;;;;;;;;4996648;28;20237;-78
2020/12/10 09:14:13;;;;;;;15.17;8.37;;;;;;;;;;5039799;28;20232;-79
2020/12/10 09:16:41;;;;;;;13.53;8.33;;;;;;;;;;5023313;28;20678;-78
2020/12/10 09:19:09;;;;;;;15.00;8.00;;;;;;;;;;4998696;28;20227;-79
2020/12/10 09:21:36;;;;;;;12.43;7.80;;;;;;;;;;5006158;28;20245;-80
2020/12/10 09:24:04;;;;;;;12.03;7.70;;;;;;;;;;5023929;28;20228;-78
2020/12/10 09:26:33;;;;;;;10.77;7.40;;;;;;;;;;5018243;28;20229;-79
2020/12/10 09:29:01;;;;;;;11.80;6.70;;;;;;;;;;5019851;28;20229;-79
2020/12/10 09:31:29;;;;;;;12.87;7.80;;;;;;;;;;5026627;28;20594;-77
2020/12/10 09:33:57;;;;;;;11.60;7.10;;;;;;;;;;5025246;28;20220;-78
2020/12/10 09:36:25;;;;;;;14.07;7.83;;;;;;;;;;5014493;28;20235;-79
2020/12/10 09:38:56;;;;;;;11.83;6.90;;;;;;;;;;4994721;28;20232;-79
2020/12/10 09:41:24;;;;;;;12.73;7.63;;;;;;;;;;4996830;28;20690;-79
2020/12/10 09:43:52;;;;;;;12.40;7.17;;;;;;;;;;4994912;28;20236;-79
2020/12/10 09:46:19;;;;;;;13.00;7.97;;;;;;;;;;5009411;28;20233;-79
2020/12/10 09:48:47;;;;;;;11.97;7.53;;;;;;;;;;5008466;28;20220;-80
2020/12/10 09:51:15;;;;;;;12.50;7.33;;;;;;;;;;5011536;28;20230;-80
2020/12/10 09:53:45;;;;;;;12.70;6.73;;;;;;;;;;5069817;28;20216;-80
2020/12/10 09:56:36;;;;;;;12.83;7.60;;;;;;;;;;5075719;28;20216;-79
2020/12/10 09:59:06;;;;;;;13.07;7.97;;;;;;;;;;5036222;28;20221;-79
2020/12/10 10:01:33;;;;;;;15.20;8.30;;;;;;;;;;5033769;28;20232;-79
2020/12/10 10:04:01;;;;;;;11.53;6.83;;;;;;;;;;5042283;28;20235;-80
2020/12/10 10:06:29;;;;;;;12.43;7.30;;;;;;;;;;5038030;28;20232;-80
2020/12/10 10:08:57;;;;;;;13.70;7.53;;;;;;;;;;5033608;28;20226;-80
2020/12/10 10:11:29;;;;;;;15.27;8.20;;;;;;;;;;5030976;28;20240;-79
2020/12/10 10:13:57;;;;;;;12.83;7.57;;;;;;;;;;5031354;28;20239;-80
2020/12/10 10:16:27;;;;;;;12.87;7.20;;;;;;;;;;5023078;28;20224;-80
2020/12/10 10:18:56;;;;;;;14.27;8.23;;;;;;;;;;5021000;28;20583;-78
2020/12/10 10:21:26;;;;;;;15.00;8.33;;;;;;;;;;5011454;28;20252;-78
2020/12/10 10:23:54;;;;;;;14.90;8.67;;;;;;;;;;5030672;28;20221;-79
2020/12/10 10:26:22;;;;;;;13.77;7.93;;;;;;;;;;5013676;28;20239;-79
2020/12/10 10:28:51;;;;;;;14.33;8.27;;;;;;;;;;5003663;28;20228;-79
2020/12/10 10:31:20;;;;;;;16.33;9.37;;;;;;;;;;5010923;28;20240;-78
2020/12/10 10:33:49;;;;;;;16.43;8.13;;;;;;;;;;5013132;28;20239;-78
2020/12/10 10:36:20;;;;;;;15.50;9.67;;;;;;;;;;5007333;28;20244;-81
2020/12/10 10:38:48;;;;;;;12.40;8.30;;;;;;;;;;5006544;28;20227;-79
2020/12/10 10:41:16;;;;;;;15.03;8.87;;;;;;;;;;5031581;28;20240;-80
2020/12/10 10:43:43;;;;;;;14.50;8.23;;;;;;;;;;5030567;28;20228;-78
2020/12/10 10:46:11;;;;;;;13.87;7.90;;;;;;;;;;5029390;28;20232;-79
2020/12/10 10:48:38;;;;;;;14.70;8.67;;;;;;;;;;5020170;28;20220;-78
2020/12/10 10:51:07;;;;;;;15.70;9.30;;;;;;;;;;5029265;28;20249;-78
2020/12/10 10:53:34;;;;;;;17.80;9.37;;;;;;;;;;5030121;28;20223;-80
2020/12/10 10:56:06;;;;;;;15.47;9.20;;;;;;;;;;5025733;28;20598;-79
2020/12/10 10:58:33;;;;;;;14.67;8.43;;;;;;;;;;5026224;28;20319;-79
2020/12/10 11:01:01;;;;;;;15.30;9.17;;;;;;;;;;5017495;28;20703;-79
2020/12/10 11:03:29;;;;;;;16.43;9.17;;;;;;;;;;4994691;28;20235;-79
2020/12/10 11:05:56;;;;;;;16.20;9.10;;;;;;;;;;5002712;28;20225;-79
2020/12/10 11:08:25;;;;;;;15.63;9.00;;;;;;;;;;5009137;28;20228;-78
2020/12/10 11:10:52;;;;;;;18.13;10.20;;;;;;;;;;5008863;28;20715;-79
2020/12/10 11:13:20;;;;;;;17.43;9.07;;;;;;;;;;5011823;28;20596;-79
2020/12/10 11:15:48;;;;;;;15.60;8.63;;;;;;;;;;5020277;28;20232;-80
2020/12/10 11:18:15;;;;;;;16.50;8.73;;;;;;;;;;5025492;28;20237;-79
2020/12/10 11:20:43;;;;;;;16.40;9.23;;;;;;;;;;5023437;28;20225;-81
2020/12/10 11:23:12;;;;;;;15.27;8.27;;;;;;;;;;5029282;28;20221;-79
2020/12/10 11:25:41;;;;;;;12.73;7.83;;;;;;;;;;5017368;28;20227;-79
2020/12/10 11:28:08;;;;;;;15.07;9.30;;;;;;;;;;5003573;28;20678;-80
2020/12/10 11:30:36;;;;;;;15.23;8.53;;;;;;;;;;5003968;28;20764;-79
2020/12/10 11:33:04;;;;;;;16.43;8.53;;;;;;;;;;5003017;28;20232;-80
2020/12/10 11:35:32;;;;;;;16.23;8.43;;;;;;;;;;5003778;28;20732;-80
2020/12/10 11:37:59;;;;;;;17.10;9.13;;;;;;;;;;5006955;28;20600;-80
2020/12/10 11:40:27;;;;;;;18.17;8.90;;;;;;;;;;5028635;28;20254;-79
2020/12/10 11:42:55;;;;;;;16.60;8.93;;;;;;;;;;5008116;28;20229;-80
2020/12/10 11:45:23;;;;;;;15.53;8.73;;;;;;;;;;5030418;28;20239;-80
2020/12/10 11:47:51;;;;;;;17.53;9.33;;;;;;;;;;5029726;28;20232;-79
2020/12/10 11:50:21;;;;;;;18.87;9.33;;;;;;;;;;5007727;28;20237;-79
2020/12/10 11:52:50;;;;;;;16.57;8.70;;;;;;;;;;5009716;28;20248;-79
2020/12/10 11:55:18;;;;;;;13.70;8.17;;;;;;;;;;5000431;28;20718;-79
2020/12/10 11:57:45;;;;;;;15.10;8.63;;;;;;;;;;5006840;28;20603;-79
2020/12/10 12:00:14;;;;;;;19.43;9.30;;;;;;;;;;5006676;28;20244;-80
2020/12/10 12:02:42;;;;;;;13.73;9.13;;;;;;;;;;5006171;28;20240;-79
2020/12/10 12:05:10;;;;;;;16.07;9.20;;;;;;;;;;5002168;28;20706;-80
2020/12/10 12:07:38;;;;;;;18.30;9.93;;;;;;;;;;4999172;28;20229;-84
2020/12/10 12:10:07;;;;;;;19.07;10.23;;;;;;;;;;4997010;28;20233;-80
2020/12/10 12:12:35;;;;;;;20.77;10.70;;;;;;;;;;5014577;28;20727;-80
2020/12/10 12:15:03;;;;;;;19.73;10.77;;;;;;;;;;5006247;28;20220;-79
2020/12/10 12:17:34;;;;;;;18.43;9.90;;;;;;;;;;5013527;28;20239;-80
2020/12/10 12:20:02;;;;;;;18.23;10.43;;;;;;;;;;5016430;28;20440;-80
2020/12/10 12:22:29;;;;;;;16.57;9.50;;;;;;;;;;5001031;28;20237;-80
2020/12/10 12:24:57;;;;;;;26.13;11.03;;;;;;;;;;5004687;28;20217;-79
2020/12/10 12:27:25;;;;;;;19.27;10.60;;;;;;;;;;5007344;28;20225;-80
2020/12/10 12:29:54;;;;;;;19.10;10.70;;;;;;;;;;4987022;28;20728;-80
2020/12/10 12:32:22;;;;;;;18.57;9.53;;;;;;;;;;5009393;28;20240;-80
2020/12/10 12:34:50;;;;;;;15.73;9.87;;;;;;;;;;5007289;28;20225;-80
2020/12/10 12:37:19;;;;;;;22.63;10.23;;;;;;;;;;5003697;28;20227;-80
2020/12/10 12:39:47;;;;;;;17.70;9.53;;;;;;;;;;4987509;28;20239;-80
2020/12/10 12:42:15;;;;;;;16.17;9.03;;;;;;;;;;5007624;28;20240;-80
2020/12/10 12:44:43;;;;;;;22.27;10.97;;;;;;;;;;5031630;28;20216;-80
2020/12/10 12:47:10;;;;;;;17.10;9.50;;;;;;;;;;5028600;28;20208;-80
2020/12/10 12:49:39;;;;;;;18.97;10.43;;;;;;;;;;5031304;28;20224;-81
2020/12/10 12:52:27;;;;;;;19.67;11.27;;;;;;;;;;5038724;28;20236;-80
2020/12/10 12:54:55;;;;;;;18.67;10.30;;;;;;;;;;4992154;28;20228;-79
2020/12/10 12:57:24;;;;;;;20.17;10.07;;;;;;;;;;5004312;28;20597;-80
2020/12/10 12:59:53;;;;;;;19.10;10.43;;;;;;;;;;5003769;28;20232;-80
2020/12/10 13:02:23;;;;;;;20.83;11.27;;;;;;;;;;5009186;28;20232;-80
2020/12/10 13:05:13;;;;;;;20.53;10.37;;;;;;;;;;5017050;28;20709;-80
2020/12/10 13:07:46;;;;;;;18.50;11.10;;;;;;;;;;5009627;28;20629;-80
2020/12/10 13:10:20;;;;;;;21.27;11.10;;;;;;;;;;5007072;28;20228;-80
2020/12/10 13:12:53;;;;;;;20.00;11.00;;;;;;;;;;5003722;28;20233;-80
2020/12/10 13:15:32;;;;;;;20.07;10.70;;;;;;;;;;5020104;28;20228;-80
2020/12/10 13:18:04;;;;;;;15.33;9.57;;;;;;;;;;5013962;28;20713;-80
2020/12/10 13:20:40;;;;;;;20.27;11.53;;;;;;;;;;5040059;28;20234;-79
2020/12/10 13:23:42;;;;;;;20.70;11.17;;;;;;;;;;5056844;28;20218;-80
2020/12/10 13:26:25;;;;;;;21.93;11.73;;;;;;;;;;5068647;28;20249;-80
2020/12/10 13:28:58;;;;;;;16.30;10.17;;;;;;;;;;5042110;28;20231;-80
2020/12/10 13:31:28;;;;;;;23.43;12.13;;;;;;;;;;5010045;28;20233;-80
2020/12/10 13:34:09;;;;;;;21.10;10.13;;;;;;;;;;5019976;28;20274;-80
2020/12/10 13:45:59;;;;;;;16.40;9.10;;;;;;;;;;5003495;28;20447;-80
2020/12/10 13:53:41;;;;;;;21.30;11.40;;;;;;;;;;5033609;28;20230;-80
2020/12/10 13:56:12;;;;;;;19.83;10.30;;;;;;;;;;5023574;28;20219;-80
2020/12/10 13:58:42;;;;;;;19.87;9.67;;;;;;;;;;5040448;28;20220;-80
2020/12/10 14:01:11;;;;;;;19.90;10.07;;;;;;;;;;5039956;28;20234;-80
2020/12/10 14:03:40;;;;;;;20.63;11.43;;;;;;;;;;5048402;28;20231;-80
2020/12/10 14:06:18;;;;;;;21.23;11.33;;;;;;;;;;5038831;28;20243;-80
2020/12/10 14:08:48;;;;;;;20.07;10.23;;;;;;;;;;5012185;28;20225;-80
2020/12/10 14:11:22;;;;;;;20.73;10.33;;;;;;;;;;5012837;28;20720;-80
2020/12/10 14:13:51;;;;;;;20.53;10.70;;;;;;;;;;5045635;28;20230;-80
2020/12/10 14:16:25;;;;;;;19.63;10.53;;;;;;;;;;5031544;28;20235;-80
2020/12/10 14:18:56;;;;;;;18.50;9.87;;;;;;;;;;5057909;28;20231;-80
2020/12/10 14:21:28;;;;;;;19.80;10.60;;;;;;;;;;5020047;28;20234;-80
2020/12/10 14:23:57;;;;;;;21.53;10.93;;;;;;;;;;5040982;28;20207;-80
2020/12/10 14:26:27;;;;;;;20.63;11.10;;;;;;;;;;5023501;28;20227;-80
2020/12/10 14:28:56;;;;;;;17.37;10.23;;;;;;;;;;5052220;28;20226;-80
2020/12/10 14:31:27;;;;;;;18.67;10.33;;;;;;;;;;5037720;28;20231;-79
2020/12/10 14:33:56;;;;;;;20.07;12.37;;;;;;;;;;5016833;28;20207;-80
2020/12/10 14:36:25;;;;;;;21.03;11.23;;;;;;;;;;5034879;28;20250;-80
2020/12/10 14:38:52;;;;;;;21.27;10.43;;;;;;;;;;5033145;28;20254;-80
2020/12/10 14:41:20;;;;;;;20.73;10.87;;;;;;;;;;5032254;28;20238;-80
2020/12/10 14:43:49;;;;;;;20.97;9.57;;;;;;;;;;5015521;28;20696;-80
2020/12/10 14:46:17;;;;;;;20.43;10.87;;;;;;;;;;5066228;28;20231;-80
2020/12/10 14:48:46;;;;;;;18.67;9.30;;;;;;;;;;5050700;28;20238;-80
2020/12/10 14:51:15;;;;;;;21.03;10.63;;;;;;;;;;5048458;28;20227;-80
2020/12/10 14:53:43;;;;;;;22.83;11.13;;;;;;;;;;5051134;28;20234;-80
2020/12/10 14:56:11;;;;;;;20.87;10.83;;;;;;;;;;5051606;28;20222;-80
2020/12/10 14:58:39;;;;;;;16.53;9.80;;;;;;;;;;5025828;28;20219;-80
2020/12/10 15:01:08;;;;;;;16.53;10.37;;;;;;;;;;5010895;28;20255;-80